createdAt,value
2023-01-22T00:01:10.026Z,33.43
2023-01-22T00:03:40.955Z,28.83
2023-01-22T00:06:10.365Z,32.40
2023-01-22T00:08:38.277Z,34.40
2023-01-22T00:11:06.256Z,31.23
2023-01-22T00:13:35.003Z,33.70
2023-01-22T00:16:03.078Z,31.83
2023-01-22T00:18:30.769Z,29.53
2023-01-22T00:20:58.741Z,31.40
2023-01-22T00:23:26.696Z,32.17
2023-01-22T00:26:06.875Z,40.07
2023-01-22T00:28:34.430Z,34.60
2023-01-22T00:31:04.061Z,41.47
2023-01-22T00:33:31.807Z,36.30
2023-01-22T00:36:06.395Z,38.77
2023-01-22T00:38:34.274Z,38.37
2023-01-22T00:41:03.079Z,37.83
2023-01-22T00:43:30.885Z,39.57
2023-01-22T00:45:58.765Z,43.70
2023-01-22T00:48:27.956Z,39.60
2023-01-22T00:50:56.034Z,49.97
2023-01-22T00:53:23.871Z,43.70
2023-01-22T00:56:02.190Z,48.80
2023-01-22T00:58:30.731Z,47.43
2023-01-22T01:00:59.074Z,54.30
2023-01-22T01:03:26.776Z,43.87
2023-01-22T01:05:58.639Z,46.40
2023-01-22T01:08:26.455Z,53.90
2023-01-22T01:11:02.805Z,54.30
2023-01-22T01:13:32.757Z,46.73
2023-01-22T01:16:06.738Z,52.73
2023-01-22T01:18:35.214Z,50.30
2023-01-22T01:21:04.881Z,49.67
2023-01-22T01:23:32.605Z,43.93
2023-01-22T01:26:01.713Z,50.70
2023-01-22T01:28:29.452Z,44.23
2023-01-22T01:30:57.629Z,57.40
2023-01-22T01:33:25.277Z,45.80
2023-01-22T01:36:00.163Z,45.07
2023-01-22T01:38:30.419Z,50.43
2023-01-22T01:40:58.425Z,47.40
2023-01-22T01:43:26.157Z,41.67
2023-01-22T01:45:54.977Z,36.53
2023-01-22T01:48:38.943Z,39.63
2023-01-22T01:51:11.850Z,38.20
2023-01-22T01:53:40.655Z,43.63
2023-01-22T01:56:15.519Z,34.90
2023-01-22T01:58:44.747Z,36.10
2023-01-22T02:01:15.714Z,33.30
2023-01-22T02:03:44.748Z,36.00
2023-01-22T02:06:15.300Z,34.37
2023-01-22T02:08:45.558Z,37.30
2023-01-22T02:11:13.756Z,30.53
2023-01-22T02:13:45.681Z,35.10
2023-01-22T02:16:13.562Z,33.73
2023-01-22T02:18:41.168Z,34.93
2023-01-22T02:21:37.923Z,36.60
2023-01-22T02:24:14.945Z,36.03
2023-01-22T02:26:44.315Z,33.80
2023-01-22T02:29:16.490Z,35.97
2023-01-22T02:31:44.477Z,43.20
2023-01-22T02:34:12.379Z,39.80
2023-01-22T02:36:40.731Z,35.47
2023-01-22T02:39:09.307Z,37.33
2023-01-22T02:41:39.103Z,40.53
2023-01-22T02:44:07.580Z,52.30
2023-01-22T02:46:35.572Z,45.93
2023-01-22T02:49:03.156Z,45.17
2023-01-22T02:51:33.293Z,46.50
2023-01-22T02:54:01.945Z,62.00
2023-01-22T02:56:30.107Z,40.60
2023-01-22T02:59:00.561Z,50.73
2023-01-22T03:01:28.481Z,50.47
2023-01-22T03:04:11.358Z,48.57
2023-01-22T03:06:43.964Z,49.40
2023-01-22T03:09:13.659Z,48.13
2023-01-22T03:11:43.208Z,49.17
2023-01-22T03:14:33.552Z,51.90
2023-01-22T03:17:20.448Z,61.13
2023-01-22T03:20:06.650Z,54.77
2023-01-22T03:22:34.543Z,49.13
2023-01-22T03:25:02.681Z,46.80
2023-01-22T03:27:31.959Z,51.80
2023-01-22T03:29:59.696Z,53.33
2023-01-22T03:32:29.872Z,56.47
2023-01-22T03:34:57.470Z,49.40
2023-01-22T03:37:30.112Z,53.07
2023-01-22T03:40:00.243Z,44.23
2023-01-22T03:42:35.961Z,53.90
2023-01-22T03:45:03.580Z,45.87
2023-01-22T03:47:32.593Z,49.23
2023-01-22T03:50:03.521Z,56.80
2023-01-22T03:52:31.506Z,47.83
2023-01-22T03:55:03.419Z,50.37
2023-01-22T03:57:32.517Z,48.83
2023-01-22T04:00:02.145Z,45.83
2023-01-22T04:02:40.773Z,47.23
2023-01-22T04:05:18.610Z,50.13
2023-01-22T04:07:46.435Z,50.93
2023-01-22T04:10:14.316Z,45.63
2023-01-22T04:12:42.214Z,58.17
2023-01-22T04:15:12.981Z,52.33
2023-01-22T04:17:40.894Z,46.77
2023-01-22T04:20:29.349Z,43.63
2023-01-22T04:23:19.673Z,45.80
2023-01-22T04:25:48.052Z,63.27
2023-01-22T04:28:16.753Z,46.07
2023-01-22T04:30:46.442Z,58.90
2023-01-22T04:33:40.443Z,54.43
2023-01-22T04:36:13.415Z,55.40
2023-01-22T04:38:41.341Z,51.80
2023-01-22T04:41:09.709Z,43.77
2023-01-22T04:43:37.598Z,53.70
2023-01-22T04:46:05.304Z,43.23
2023-01-22T04:48:34.803Z,51.80
2023-01-22T04:51:02.464Z,51.33
2023-01-22T04:53:32.375Z,46.47
2023-01-22T04:56:00.957Z,43.17
2023-01-22T04:58:29.358Z,42.20
2023-01-22T05:00:59.664Z,45.77
2023-01-22T05:03:28.075Z,44.57
2023-01-22T05:05:56.570Z,43.10
2023-01-22T05:08:24.370Z,41.07
2023-01-22T05:10:52.091Z,41.07
2023-01-22T05:13:26.207Z,47.93
2023-01-22T05:15:54.032Z,44.20
2023-01-22T05:18:23.718Z,46.43
2023-01-22T05:20:52.754Z,46.73
2023-01-22T05:23:22.875Z,42.80
2023-01-22T05:25:51.363Z,43.47
2023-01-22T05:28:25.803Z,49.23
2023-01-22T05:31:05.974Z,43.60
2023-01-22T05:33:39.301Z,42.57
2023-01-22T05:36:09.799Z,39.77
2023-01-22T05:38:37.708Z,40.10
2023-01-22T05:41:05.717Z,39.40
2023-01-22T05:43:38.392Z,45.90
2023-01-22T05:46:08.650Z,40.67
2023-01-22T05:48:45.450Z,37.50
2023-01-22T05:51:17.170Z,42.13
2023-01-22T05:53:46.010Z,45.00
2023-01-22T05:56:14.634Z,42.90
2023-01-22T05:58:42.481Z,44.77
2023-01-22T06:01:10.854Z,45.63
2023-01-22T06:03:46.350Z,38.70
2023-01-22T06:06:18.129Z,35.27
2023-01-22T06:08:47.862Z,41.00
2023-01-22T06:11:17.273Z,46.50
2023-01-22T06:13:47.348Z,43.20
2023-01-22T06:16:18.019Z,40.60
2023-01-22T06:19:00.701Z,46.73
2023-01-22T06:21:33.795Z,39.00
2023-01-22T06:24:01.802Z,40.33
2023-01-22T06:26:31.542Z,42.17
2023-01-22T06:29:00.904Z,45.87
2023-01-22T06:31:30.996Z,53.77
2023-01-22T06:33:59.272Z,48.23
2023-01-22T06:36:26.980Z,46.77
2023-01-22T06:38:55.762Z,46.13
2023-01-22T06:41:36.862Z,42.17
2023-01-22T06:44:07.056Z,44.63
2023-01-22T06:46:34.741Z,40.73
2023-01-22T06:49:10.201Z,42.97
2023-01-22T06:51:39.724Z,41.67
2023-01-22T06:54:07.661Z,42.00
2023-01-22T06:56:35.498Z,40.03
2023-01-22T06:59:05.754Z,41.90
2023-01-22T07:01:33.527Z,41.67
2023-01-22T07:04:01.675Z,51.00
2023-01-22T07:06:29.553Z,43.17
2023-01-22T07:08:57.535Z,45.13
2023-01-22T07:11:25.136Z,43.67
2023-01-22T07:13:53.086Z,37.90
2023-01-22T07:16:20.692Z,40.87
2023-01-22T07:18:48.610Z,41.27
2023-01-22T07:21:16.272Z,38.40
2023-01-22T07:23:44.369Z,40.60
2023-01-22T07:26:11.946Z,47.47
2023-01-22T07:28:39.875Z,45.17
2023-01-22T07:31:10.475Z,67.67
2023-01-22T07:33:38.597Z,57.27
2023-01-22T07:36:06.536Z,87.83
2023-01-22T07:38:34.477Z,55.83
2023-01-22T07:41:03.375Z,58.77
2023-01-22T07:43:32.742Z,244.63
2023-01-22T07:46:04.158Z,146.70
2023-01-22T07:48:32.349Z,156.30
2023-01-22T07:51:04.772Z,118.03
2023-01-22T07:53:33.061Z,130.33
2023-01-22T07:56:02.407Z,74.73
2023-01-22T07:58:30.759Z,153.63
2023-01-22T08:00:58.437Z,57.47
2023-01-22T08:03:26.253Z,64.33
2023-01-22T08:05:53.905Z,55.17
2023-01-22T08:08:21.829Z,48.43
2023-01-22T08:10:49.532Z,100.87
2023-01-22T08:13:17.439Z,42.33
2023-01-22T08:15:45.160Z,87.33
2023-01-22T08:18:13.108Z,50.57
2023-01-22T08:20:40.729Z,51.30
2023-01-22T08:23:08.605Z,56.03
2023-01-22T08:25:36.597Z,53.33
2023-01-22T08:28:05.372Z,59.80
2023-01-22T08:30:45.196Z,62.13
2023-01-22T08:33:16.028Z,64.47
2023-01-22T08:35:43.861Z,69.97
2023-01-22T08:38:11.955Z,49.47
2023-01-22T08:40:39.700Z,121.60
2023-01-22T08:43:07.794Z,93.20
2023-01-22T08:45:35.924Z,609.10
2023-01-22T08:48:03.871Z,837.07
2023-01-22T08:50:31.626Z,571.73
2023-01-22T08:52:59.562Z,951.27
2023-01-22T08:55:27.902Z,602.83
2023-01-22T08:57:56.463Z,651.17
2023-01-22T09:00:24.820Z,403.00
2023-01-22T09:02:53.011Z,235.03
2023-01-22T09:05:20.859Z,135.33
2023-01-22T09:07:48.942Z,131.23
2023-01-22T09:10:17.323Z,44.77
2023-01-22T09:12:46.022Z,122.23
2023-01-22T09:15:13.753Z,274.40
2023-01-22T09:17:42.661Z,58.80
2023-01-22T09:20:10.724Z,67.50
2023-01-22T09:22:38.904Z,47.10
2023-01-22T09:25:07.080Z,78.77
2023-01-22T09:27:35.151Z,49.87
2023-01-22T09:30:03.029Z,48.60
2023-01-22T09:32:31.441Z,54.20
2023-01-22T09:34:59.240Z,50.97
2023-01-22T09:37:27.263Z,71.07
2023-01-22T09:39:54.943Z,104.80
2023-01-22T09:42:38.244Z,93.33
2023-01-22T09:45:10.802Z,56.97
2023-01-22T09:47:44.754Z,112.60
2023-01-22T09:50:19.391Z,59.60
2023-01-22T09:52:47.608Z,61.30
2023-01-22T09:55:18.554Z,71.97
2023-01-22T09:57:48.666Z,53.93
2023-01-22T10:00:21.837Z,57.10
2023-01-22T10:02:59.447Z,116.20
2023-01-22T10:05:27.039Z,78.10
2023-01-22T10:08:00.741Z,53.87
2023-01-22T10:10:28.826Z,68.67
2023-01-22T10:13:02.531Z,78.90
2023-01-22T10:15:30.168Z,61.03
2023-01-22T10:17:58.828Z,59.23
2023-01-22T10:20:26.631Z,59.93
2023-01-22T10:22:56.233Z,68.50
2023-01-22T10:25:23.810Z,74.23
2023-01-22T10:27:57.824Z,96.67
2023-01-22T10:30:26.805Z,141.80
2023-01-22T10:33:01.949Z,153.77
2023-01-22T10:35:31.965Z,53.10
2023-01-22T10:38:01.177Z,68.23
2023-01-22T10:40:41.760Z,72.63
2023-01-22T10:43:20.226Z,81.03
2023-01-22T10:45:52.143Z,59.93
2023-01-22T10:48:20.206Z,65.87
2023-01-22T10:50:59.529Z,57.73
2023-01-22T10:53:38.982Z,46.07
2023-01-22T10:56:09.889Z,51.23
2023-01-22T10:58:40.957Z,57.93
2023-01-22T11:01:24.332Z,90.57
2023-01-22T11:03:52.336Z,52.13
2023-01-22T11:06:25.115Z,149.07
2023-01-22T11:09:11.509Z,55.53
2023-01-22T11:11:43.029Z,80.17
2023-01-22T11:14:27.628Z,82.40
2023-01-22T11:17:02.099Z,78.03
2023-01-22T11:19:37.449Z,111.67
2023-01-22T11:22:07.161Z,69.27
2023-01-22T11:24:42.898Z,70.47
2023-01-22T11:27:14.220Z,62.27
2023-01-22T11:29:59.153Z,85.10
2023-01-22T11:32:43.412Z,57.17
2023-01-22T11:35:46.696Z,65.93
2023-01-22T11:38:17.745Z,85.27
2023-01-22T11:40:51.490Z,74.10
2023-01-22T11:43:55.821Z,149.17
2023-01-22T11:46:24.249Z,143.20
2023-01-22T11:48:56.140Z,237.57
2023-01-22T11:51:27.108Z,261.80
2023-01-22T11:53:54.794Z,76.43
2023-01-22T11:56:41.226Z,84.43
2023-01-22T11:59:11.994Z,120.90
2023-01-22T12:01:55.303Z,115.93
2023-01-22T12:04:25.848Z,97.03
2023-01-22T12:06:57.109Z,120.83
2023-01-22T12:09:46.271Z,119.00
2023-01-22T12:12:14.495Z,64.40
2023-01-22T12:14:53.128Z,69.80
2023-01-22T12:17:39.711Z,100.00
2023-01-22T12:20:17.150Z,64.40
2023-01-22T12:22:53.902Z,75.63
2023-01-22T12:25:39.192Z,138.23
2023-01-22T12:28:10.522Z,579.20
2023-01-22T12:30:53.449Z,533.00
2023-01-22T12:33:25.773Z,260.07
2023-01-22T12:35:56.274Z,159.00
2023-01-22T12:38:27.119Z,83.57
2023-01-22T12:41:03.805Z,73.23
2023-01-22T12:43:38.983Z,117.17
2023-01-22T12:46:12.380Z,102.13
2023-01-22T12:48:49.516Z,76.80
2023-01-22T12:51:36.047Z,142.67
2023-01-22T12:54:11.166Z,105.83
2023-01-22T12:56:38.867Z,70.33
2023-01-22T12:59:06.946Z,77.57
2023-01-22T13:01:35.721Z,151.13
2023-01-22T13:04:07.998Z,111.90
2023-01-22T13:06:41.030Z,77.10
2023-01-22T13:09:26.110Z,111.20
2023-01-22T13:11:53.843Z,67.20
2023-01-22T13:14:28.479Z,102.97
2023-01-22T13:17:04.110Z,75.53
2023-01-22T13:19:42.769Z,136.50
2023-01-22T13:22:15.318Z,109.93
2023-01-22T13:24:50.264Z,103.57
2023-01-22T13:27:30.487Z,75.43
2023-01-22T13:30:16.773Z,86.47
2023-01-22T13:32:44.700Z,89.10
2023-01-22T13:35:15.161Z,76.57
2023-01-22T13:37:45.382Z,276.77
2023-01-22T13:40:13.746Z,74.47
2023-01-22T13:42:44.339Z,108.37
2023-01-22T13:45:19.223Z,132.60
2023-01-22T13:47:47.196Z,102.80
2023-01-22T13:50:26.330Z,237.87
2023-01-22T13:52:54.592Z,136.53
2023-01-22T13:55:26.885Z,86.00
2023-01-22T13:57:57.579Z,71.63
2023-01-22T14:00:25.848Z,78.20
2023-01-22T14:02:54.291Z,150.37
2023-01-22T14:05:27.145Z,133.80
2023-01-22T14:08:05.151Z,98.80
2023-01-22T14:10:33.378Z,165.27
2023-01-22T14:13:06.161Z,102.20
2023-01-22T14:15:35.496Z,109.67
2023-01-22T14:18:18.057Z,60.53
2023-01-22T14:20:48.016Z,191.23
2023-01-22T14:23:16.468Z,67.10
2023-01-22T14:25:51.345Z,108.53
2023-01-22T14:28:19.365Z,273.03
2023-01-22T14:30:47.714Z,148.03
2023-01-22T14:33:19.089Z,217.77
2023-01-22T14:35:47.495Z,69.00
2023-01-22T14:38:16.009Z,100.13
2023-01-22T14:40:44.232Z,88.83
2023-01-22T14:43:11.971Z,297.40
2023-01-22T14:45:40.940Z,59.57
2023-01-22T14:48:12.529Z,97.47
2023-01-22T14:50:41.723Z,58.17
2023-01-22T14:53:10.225Z,65.27
2023-01-22T14:55:39.752Z,71.73
2023-01-22T14:58:08.287Z,90.20
2023-01-22T15:00:36.718Z,86.00
2023-01-22T15:03:04.817Z,95.13
2023-01-22T15:05:35.484Z,137.03
2023-01-22T15:08:03.993Z,65.23
2023-01-22T15:10:33.509Z,59.07
2023-01-22T15:13:01.875Z,60.23
2023-01-22T15:15:30.602Z,65.60
2023-01-22T15:17:58.795Z,64.63
2023-01-22T15:20:27.002Z,61.50
2023-01-22T15:22:54.869Z,59.77
2023-01-22T15:25:23.207Z,55.37
2023-01-22T15:27:51.052Z,57.93
2023-01-22T15:30:19.797Z,60.50
2023-01-22T15:32:48.141Z,62.37
2023-01-22T15:35:16.498Z,55.90
2023-01-22T15:37:44.613Z,57.00
2023-01-22T15:40:12.946Z,83.17
2023-01-22T15:42:40.723Z,60.00
2023-01-22T15:45:09.052Z,53.50
2023-01-22T15:47:36.885Z,70.00
2023-01-22T15:50:05.751Z,75.60
2023-01-22T15:52:33.541Z,57.10
2023-01-22T15:55:01.374Z,51.57
2023-01-22T15:57:29.385Z,56.17
2023-01-22T15:59:57.547Z,55.83
2023-01-22T16:02:25.438Z,91.70
2023-01-22T16:04:53.767Z,60.10
2023-01-22T16:07:21.706Z,53.93
2023-01-22T16:09:49.875Z,45.87
2023-01-22T16:12:18.512Z,53.77
2023-01-22T16:14:46.678Z,57.63
2023-01-22T16:17:14.938Z,60.77
2023-01-22T16:19:43.525Z,99.10
2023-01-22T16:22:11.748Z,134.20
2023-01-22T16:24:40.816Z,428.20
2023-01-22T16:27:08.662Z,272.17
2023-01-22T16:29:36.672Z,529.23
2023-01-22T16:32:04.699Z,714.63
2023-01-22T16:34:32.984Z,137.23
2023-01-22T16:37:00.929Z,171.80
2023-01-22T16:39:29.148Z,75.30
2023-01-22T16:41:57.174Z,60.47
2023-01-22T16:44:27.354Z,165.73
2023-01-22T16:46:57.835Z,73.80
2023-01-22T16:49:27.210Z,174.53
2023-01-22T16:52:05.029Z,148.47
2023-01-22T16:54:39.372Z,223.07
2023-01-22T16:57:09.139Z,155.77
2023-01-22T16:59:39.783Z,78.43
2023-01-22T17:02:13.148Z,316.73
2023-01-22T17:04:41.372Z,232.27
2023-01-22T17:07:27.410Z,113.63
2023-01-22T17:10:00.623Z,104.30
2023-01-22T17:12:28.578Z,101.60
2023-01-22T17:14:56.739Z,114.67
2023-01-22T17:17:24.614Z,109.87
2023-01-22T17:19:52.628Z,109.70
2023-01-22T17:22:20.498Z,107.37
2023-01-22T17:24:48.682Z,93.40
2023-01-22T17:27:18.679Z,203.90
2023-01-22T17:29:46.827Z,284.03
2023-01-22T17:32:14.597Z,119.93
2023-01-22T17:34:42.835Z,72.40
2023-01-22T17:37:11.346Z,72.50
2023-01-22T17:39:41.054Z,67.57
2023-01-22T17:42:08.922Z,72.83
2023-01-22T17:44:36.988Z,190.37
2023-01-22T17:47:06.088Z,101.97
2023-01-22T17:49:35.301Z,72.30
2023-01-22T17:52:03.648Z,92.53
2023-01-22T17:54:32.070Z,72.80
2023-01-22T17:56:59.957Z,61.23
2023-01-22T17:59:28.432Z,62.17
2023-01-22T18:01:57.071Z,106.13
2023-01-22T18:04:26.084Z,325.67
2023-01-22T18:06:54.419Z,124.93
2023-01-22T18:09:25.063Z,391.03
2023-01-22T18:11:53.692Z,274.43
2023-01-22T18:14:28.362Z,66.20
2023-01-22T18:16:56.288Z,182.23
2023-01-22T18:19:24.820Z,79.70
2023-01-22T18:21:52.652Z,192.17
2023-01-22T18:24:23.091Z,145.77
2023-01-22T18:26:51.493Z,151.27
2023-01-22T18:29:19.833Z,398.53
2023-01-22T18:31:47.754Z,85.37
2023-01-22T18:34:16.246Z,172.80
2023-01-22T18:36:44.346Z,92.03
2023-01-22T18:39:16.702Z,235.03
2023-01-22T18:41:45.413Z,567.40
2023-01-22T18:44:15.332Z,246.63
2023-01-22T18:46:47.616Z,100.67
2023-01-22T18:49:17.682Z,95.27
2023-01-22T18:51:46.131Z,76.50
2023-01-22T18:54:14.442Z,173.20
2023-01-22T18:56:44.964Z,228.77
2023-01-22T18:59:13.332Z,185.70
2023-01-22T19:01:42.953Z,127.30
2023-01-22T19:04:18.092Z,251.13
2023-01-22T19:06:48.763Z,125.17
2023-01-22T19:09:17.171Z,270.63
2023-01-22T19:11:49.288Z,1067.43
2023-01-22T19:14:18.516Z,304.90
2023-01-22T19:16:48.710Z,81.10
2023-01-22T19:19:17.304Z,62.43
2023-01-22T19:21:49.291Z,74.33
2023-01-22T19:24:19.764Z,237.77
2023-01-22T19:26:50.350Z,236.63
2023-01-22T19:29:19.973Z,107.37
2023-01-22T19:31:51.118Z,126.23
2023-01-22T19:34:23.963Z,67.83
2023-01-22T19:36:54.547Z,130.03
2023-01-22T19:39:23.547Z,135.73
2023-01-22T19:41:53.145Z,491.20
2023-01-22T19:44:23.066Z,244.80
2023-01-22T19:46:51.572Z,85.40
2023-01-22T19:49:20.683Z,89.33
2023-01-22T19:51:49.517Z,62.00
2023-01-22T19:54:18.967Z,78.60
2023-01-22T19:56:48.909Z,402.77
2023-01-22T19:59:19.009Z,279.07
2023-01-22T20:01:48.758Z,63.77
2023-01-22T20:04:20.892Z,62.53
2023-01-22T20:06:52.034Z,77.17
2023-01-22T20:09:22.084Z,53.23
2023-01-22T20:11:53.929Z,102.97
2023-01-22T20:14:23.453Z,135.57
2023-01-22T20:16:52.391Z,86.67
2023-01-22T20:19:21.725Z,69.70
2023-01-22T20:21:50.798Z,51.47
2023-01-22T20:24:20.894Z,52.23
2023-01-22T20:26:49.448Z,88.27
2023-01-22T20:29:20.949Z,54.13
2023-01-22T20:31:51.765Z,120.30
2023-01-22T20:34:21.627Z,147.37
2023-01-22T20:36:53.620Z,107.70
2023-01-22T20:39:26.089Z,103.27
2023-01-22T20:41:55.329Z,83.87
2023-01-22T20:44:27.015Z,44.97
2023-01-22T20:46:57.337Z,65.13
2023-01-22T20:49:26.459Z,43.47
2023-01-22T20:51:55.004Z,65.77
2023-01-22T20:54:24.599Z,51.97
2023-01-22T20:56:52.519Z,155.70
2023-01-22T20:59:22.335Z,91.80
2023-01-22T21:01:50.848Z,95.50
2023-01-22T21:04:20.096Z,94.53
2023-01-22T21:06:48.687Z,119.30
2023-01-22T21:09:17.257Z,55.13
2023-01-22T21:11:45.606Z,69.53
2023-01-22T21:14:20.582Z,59.93
2023-01-22T21:16:49.342Z,43.50
2023-01-22T21:19:21.836Z,67.57
2023-01-22T21:21:50.117Z,66.33
2023-01-22T21:24:19.881Z,45.97
2023-01-22T21:26:48.035Z,43.93
2023-01-22T21:29:18.210Z,39.77
2023-01-22T21:31:49.286Z,45.27
2023-01-22T21:34:19.035Z,39.73
2023-01-22T21:36:51.227Z,37.87
2023-01-22T21:39:20.851Z,56.60
2023-01-22T21:41:49.100Z,40.93
2023-01-22T21:44:57.363Z,46.03
2023-01-22T21:47:25.670Z,38.20
2023-01-22T21:49:54.011Z,53.40
2023-01-22T21:52:21.839Z,46.93
2023-01-22T21:54:50.039Z,39.43
2023-01-22T21:57:18.055Z,38.57
2023-01-22T21:59:49.280Z,44.00
2023-01-22T22:02:18.932Z,43.70
2023-01-22T22:04:47.518Z,37.60
2023-01-22T22:07:16.099Z,35.97
2023-01-22T22:09:45.059Z,37.03
2023-01-22T22:12:13.078Z,39.33
2023-01-22T22:14:41.351Z,35.60
2023-01-22T22:17:09.804Z,35.40
2023-01-22T22:19:38.468Z,40.23
2023-01-22T22:22:06.196Z,36.10
2023-01-22T22:24:34.267Z,39.20
2023-01-22T22:27:02.041Z,37.10
2023-01-22T22:29:30.154Z,39.47
2023-01-22T22:31:58.325Z,33.00
2023-01-22T22:34:26.783Z,37.90
2023-01-22T22:36:54.535Z,38.23
2023-01-22T22:39:22.580Z,34.07
2023-01-22T22:41:50.308Z,35.73
2023-01-22T22:44:18.388Z,42.90
2023-01-22T22:46:46.339Z,40.57
2023-01-22T22:49:14.960Z,43.03
2023-01-22T22:51:43.548Z,38.70
2023-01-22T22:54:15.001Z,36.83
2023-01-22T22:56:42.868Z,38.53
2023-01-22T22:59:10.979Z,41.03
2023-01-22T23:01:38.761Z,39.13
2023-01-22T23:04:07.597Z,37.20
2023-01-22T23:06:36.363Z,40.13
2023-01-22T23:09:14.982Z,39.57
2023-01-22T23:11:43.139Z,35.27
2023-01-22T23:14:11.688Z,37.73
2023-01-22T23:16:41.193Z,37.67
2023-01-22T23:19:13.481Z,35.73
2023-01-22T23:21:41.808Z,43.93
2023-01-22T23:24:10.770Z,36.17
2023-01-22T23:26:38.746Z,39.77
2023-01-22T23:29:08.481Z,35.33
2023-01-22T23:31:38.424Z,38.00
2023-01-22T23:34:07.936Z,40.03
2023-01-22T23:36:36.021Z,42.20
2023-01-22T23:39:04.850Z,40.27
2023-01-22T23:41:32.839Z,46.77
2023-01-22T23:44:00.855Z,37.80
2023-01-22T23:46:31.010Z,38.60
2023-01-22T23:48:59.882Z,37.00
2023-01-22T23:51:28.092Z,38.03
2023-01-22T23:53:56.230Z,39.07
2023-01-22T23:56:25.631Z,38.60
2023-01-22T23:58:54.723Z,35.10
